Time;durP1;ratioP1;P1;durP2;ratioP2;P2;SDS_P1;SDS_P2;PMS_P1;PMS_P2;Temp;Humidity;BMP_temperature;BMP_pressure;BME280_temperature;BME280_humidity;BME280_pressure;Samples;Min_cycle;Max_cycle;Signal;HPM_P1;HPM_P2
2021/12/20 00:01:04;;;;;;;4.77;1.83;;;4.10;99.90;;;;;;5080843;28;20213;-69
2021/12/20 00:03:52;;;;;;;6.20;2.07;;;4.20;99.90;;;;;;5102323;28;20220;-71
2021/12/20 00:06:41;;;;;;;6.60;2.17;;;4.10;99.90;;;;;;5087110;28;20396;-69
2021/12/20 00:09:30;;;;;;;7.83;2.10;;;4.10;99.90;;;;;;5083998;28;20285;-68
2021/12/20 00:12:20;;;;;;;5.63;2.00;;;4.20;99.90;;;;;;5098996;28;20306;-71
2021/12/20 00:15:09;;;;;;;3.47;1.77;;;4.20;99.90;;;;;;5096778;28;20237;-69
2021/12/20 00:17:58;;;;;;;5.17;2.00;;;4.20;99.90;;;;;;5080041;28;20233;-67
2021/12/20 00:20:47;;;;;;;5.00;1.80;;;4.20;99.90;;;;;;5078433;28;21895;-69
2021/12/20 00:23:36;;;;;;;6.33;1.90;;;4.20;99.90;;;;;;5079811;28;20229;-69
2021/12/20 00:26:24;;;;;;;5.80;1.83;;;4.20;99.90;;;;;;5073348;28;20568;-70
2021/12/20 00:29:15;;;;;;;5.63;1.90;;;4.20;99.90;;;;;;5063092;28;20229;-69
2021/12/20 00:32:04;;;;;;;5.70;2.30;;;4.20;99.90;;;;;;5080715;28;20310;-68
2021/12/20 00:34:53;;;;;;;5.97;2.33;;;4.20;99.90;;;;;;5077616;28;20228;-68
2021/12/20 00:40:48;;;;;;;7.47;2.53;;;4.10;99.90;;;;;;5080960;28;20293;-68
2021/12/20 00:43:37;;;;;;;3.97;2.10;;;4.10;99.90;;;;;;5080128;28;20236;-70
2021/12/20 00:46:27;;;;;;;5.77;2.47;;;4.10;99.90;;;;;;5077195;28;20247;-69
2021/12/20 00:49:16;;;;;;;5.60;2.27;;;4.10;99.90;;;;;;5077511;28;20304;-69
2021/12/20 00:52:05;;;;;;;5.33;2.00;;;4.10;99.90;;;;;;5083501;28;20734;-67
2021/12/20 00:54:54;;;;;;;5.87;2.17;;;4.10;99.90;;;;;;5083275;28;20207;-68
2021/12/20 00:57:43;;;;;;;4.53;2.00;;;4.10;99.90;;;;;;5078697;28;20223;-70
2021/12/20 01:00:39;;;;;;;6.63;2.13;;;4.00;99.90;;;;;;5083170;28;20231;-66
2021/12/20 01:03:31;;;;;;;5.10;2.30;;;4.00;99.90;;;;;;5074787;28;20241;-70
2021/12/20 01:06:19;;;;;;;4.73;1.90;;;4.00;99.90;;;;;;5077487;28;20231;-68
2021/12/20 01:09:08;;;;;;;5.10;2.00;;;3.90;99.90;;;;;;5086683;28;20550;-68
2021/12/20 01:12:03;;;;;;;5.77;1.90;;;3.90;99.90;;;;;;5084634;28;20213;-65
2021/12/20 01:14:58;;;;;;;4.40;2.00;;;3.90;99.90;;;;;;5091262;28;20333;-70
2021/12/20 01:17:47;;;;;;;4.33;1.80;;;3.90;99.90;;;;;;5058747;28;20221;-70
2021/12/20 01:20:41;;;;;;;6.37;2.23;;;3.90;99.90;;;;;;5080033;28;20632;-69
2021/12/20 01:23:30;;;;;;;6.10;2.27;;;3.80;99.90;;;;;;5081190;28;20231;-71
2021/12/20 01:26:20;;;;;;;5.70;2.13;;;3.80;99.90;;;;;;5078094;28;20934;-69
2021/12/20 01:29:08;;;;;;;6.37;1.80;;;3.80;99.90;;;;;;5078936;28;20693;-70
2021/12/20 01:32:00;;;;;;;4.67;1.80;;;3.80;99.90;;;;;;5080106;28;20224;-68
2021/12/20 01:34:49;;;;;;;3.97;1.87;;;3.90;99.90;;;;;;5076232;28;20223;-68
2021/12/20 01:37:40;;;;;;;5.37;1.97;;;3.90;99.90;;;;;;5081884;28;20219;-70
2021/12/20 01:40:29;;;;;;;3.80;1.90;;;3.90;99.90;;;;;;5075980;28;20220;-68
2021/12/20 01:43:18;;;;;;;5.00;2.07;;;4.00;99.90;;;;;;5078604;28;20219;-66
2021/12/20 01:46:07;;;;;;;7.43;1.97;;;3.90;99.90;;;;;;5054905;28;20230;-67
2021/12/20 01:48:55;;;;;;;4.00;2.20;;;3.90;99.90;;;;;;5078531;28;20220;-69
2021/12/20 01:51:51;;;;;;;3.87;2.03;;;3.90;99.90;;;;;;5090702;28;20253;-68
2021/12/20 01:54:42;;;;;;;5.37;1.70;;;3.80;99.90;;;;;;5073729;28;20780;-69
2021/12/20 01:57:30;;;;;;;3.97;1.90;;;3.80;99.90;;;;;;5074315;28;20242;-66
2021/12/20 02:00:21;;;;;;;4.13;2.00;;;3.90;99.90;;;;;;5078043;28;20228;-70
2021/12/20 02:03:12;;;;;;;3.57;1.63;;;3.90;99.90;;;;;;5077546;28;20273;-68
2021/12/20 02:06:06;;;;;;;4.60;2.10;;;3.90;99.90;;;;;;5078973;28;20759;-69
2021/12/20 02:08:55;;;;;;;5.33;1.90;;;3.90;99.90;;;;;;5078697;28;20320;-68
2021/12/20 02:11:47;;;;;;;4.33;1.70;;;3.80;99.90;;;;;;5076259;28;20330;-68
2021/12/20 02:14:35;;;;;;;5.23;1.83;;;3.90;99.90;;;;;;5078626;28;20233;-69
2021/12/20 02:17:24;;;;;;;3.50;1.73;;;3.90;99.90;;;;;;5079162;28;20228;-69
2021/12/20 02:20:26;;;;;;;4.90;1.90;;;3.80;99.90;;;;;;5077634;28;20429;-68
2021/12/20 02:23:15;;;;;;;3.23;1.77;;;3.90;99.90;;;;;;5093630;28;20578;-70
2021/12/20 02:26:05;;;;;;;5.90;2.07;;;4.00;99.90;;;;;;5081149;28;20232;-67
2021/12/20 02:28:57;;;;;;;6.33;1.90;;;3.90;99.90;;;;;;5096302;28;20229;-68
2021/12/20 02:38:03;;;;;;;3.50;1.80;;;3.90;99.90;;;;;;5097335;28;20212;-68
2021/12/20 02:40:57;;;;;;;5.57;1.90;;;3.90;99.90;;;;;;5099221;28;20395;-69
2021/12/20 02:43:53;;;;;;;4.07;2.17;;;3.90;99.90;;;;;;5101217;28;20332;-69
2021/12/20 02:47:05;;;;;;;4.17;2.13;;;3.90;99.90;;;;;;5087535;28;20243;-71
2021/12/20 02:49:58;;;;;;;4.27;1.97;;;3.80;99.90;;;;;;5096860;27;20319;-68
2021/12/20 02:52:47;;;;;;;5.17;2.13;;;3.90;99.90;;;;;;5100829;28;20233;-67
2021/12/20 02:55:37;;;;;;;5.37;1.83;;;3.80;99.90;;;;;;5084046;27;20217;-67
2021/12/20 02:58:25;;;;;;;5.37;1.80;;;3.80;99.90;;;;;;5095811;28;20229;-67
2021/12/20 03:01:14;;;;;;;3.53;1.80;;;3.70;99.90;;;;;;5086255;28;20225;-67
2021/12/20 03:04:05;;;;;;;3.53;2.00;;;3.70;99.90;;;;;;5101178;28;20226;-69
2021/12/20 03:06:56;;;;;;;5.67;2.03;;;3.70;99.90;;;;;;5084755;28;20303;-69
2021/12/20 03:09:50;;;;;;;6.23;1.87;;;3.60;99.90;;;;;;5096376;28;20217;-70
2021/12/20 03:12:41;;;;;;;3.50;2.00;;;3.60;99.90;;;;;;5098620;27;20236;-70
2021/12/20 03:15:29;;;;;;;6.23;2.03;;;3.60;99.90;;;;;;5083381;28;20240;-68
2021/12/20 03:18:18;;;;;;;5.57;2.17;;;3.60;99.90;;;;;;5101736;28;20645;-69
2021/12/20 03:21:07;;;;;;;4.43;1.90;;;3.60;99.90;;;;;;5088465;28;20220;-69
2021/12/20 03:23:55;;;;;;;6.40;2.23;;;3.50;99.90;;;;;;5099094;27;20221;-69
2021/12/20 03:26:44;;;;;;;3.43;2.10;;;3.50;99.90;;;;;;5098504;27;20223;-70
2021/12/20 03:29:34;;;;;;;5.83;2.60;;;3.60;99.90;;;;;;5091859;28;20923;-69
2021/12/20 03:32:23;;;;;;;6.73;2.33;;;3.60;99.90;;;;;;5085605;28;20217;-70
2021/12/20 03:35:12;;;;;;;4.17;2.23;;;3.60;99.90;;;;;;5099279;27;20718;-69
2021/12/20 03:38:03;;;;;;;5.43;2.10;;;3.60;99.90;;;;;;5096742;28;20229;-69
2021/12/20 03:40:51;;;;;;;5.87;2.63;;;3.60;99.90;;;;;;5084579;28;20215;-70
2021/12/20 03:43:40;;;;;;;5.40;2.60;;;3.60;99.90;;;;;;5085606;28;20228;-69
2021/12/20 03:46:30;;;;;;;3.80;2.43;;;3.70;99.90;;;;;;5082013;28;20223;-69
2021/12/20 03:49:19;;;;;;;4.23;2.27;;;3.60;99.90;;;;;;5099025;27;20256;-68
2021/12/20 03:52:08;;;;;;;5.87;2.30;;;3.60;99.90;;;;;;5098524;28;20920;-69
2021/12/20 03:54:57;;;;;;;5.57;2.37;;;3.60;99.90;;;;;;5099566;27;20217;-71
2021/12/20 03:57:46;;;;;;;4.30;2.23;;;3.60;99.90;;;;;;5099846;27;20221;-69
2021/12/20 04:00:35;;;;;;;4.67;1.93;;;3.60;99.90;;;;;;5084341;28;20227;-69
2021/12/20 04:03:26;;;;;;;3.10;1.67;;;3.70;99.90;;;;;;5098767;27;20216;-69
2021/12/20 04:06:15;;;;;;;3.83;2.00;;;3.70;99.90;;;;;;5096361;27;20224;-66
2021/12/20 04:09:04;;;;;;;3.63;2.10;;;3.60;99.90;;;;;;5084110;28;20313;-70
2021/12/20 04:11:53;;;;;;;5.97;2.37;;;3.50;99.90;;;;;;5079594;28;20221;-70
2021/12/20 04:14:42;;;;;;;4.27;2.03;;;3.60;99.90;;;;;;5101362;28;20219;-70
2021/12/20 04:17:30;;;;;;;3.83;1.87;;;3.50;99.90;;;;;;5099774;27;20225;-70
2021/12/20 04:20:21;;;;;;;3.83;1.90;;;3.60;99.90;;;;;;5087459;28;20216;-71
2021/12/20 04:23:09;;;;;;;5.87;2.03;;;3.50;99.90;;;;;;5098294;27;20221;-71
2021/12/20 04:25:58;;;;;;;4.50;1.70;;;3.60;99.90;;;;;;5082976;28;20868;-69
2021/12/20 04:28:50;;;;;;;4.03;1.73;;;3.50;99.90;;;;;;5086216;28;20213;-67
2021/12/20 04:31:39;;;;;;;5.70;1.87;;;3.50;99.90;;;;;;5085394;28;20211;-69
2021/12/20 04:34:28;;;;;;;5.07;2.30;;;3.50;99.90;;;;;;5084093;28;20774;-70
2021/12/20 04:37:18;;;;;;;4.17;1.70;;;3.50;99.90;;;;;;5094538;28;20219;-68
2021/12/20 04:40:11;;;;;;;15.53;9.83;;;3.60;99.90;;;;;;5079153;28;20219;-69
2021/12/20 04:43:00;;;;;;;61.67;43.03;;;3.60;99.90;;;;;;5085045;27;20224;-70
2021/12/20 04:45:49;;;;;;;3.87;1.63;;;3.60;99.90;;;;;;5083163;28;20221;-67
2021/12/20 04:48:38;;;;;;;2.47;1.17;;;3.50;99.90;;;;;;5098302;28;20231;-66
2021/12/20 04:51:27;;;;;;;3.67;1.57;;;3.50;99.90;;;;;;5084968;28;20215;-69
2021/12/20 04:54:17;;;;;;;5.20;1.80;;;3.50;99.90;;;;;;5096738;28;20334;-70
2021/12/20 04:57:06;;;;;;;5.57;1.80;;;3.60;99.90;;;;;;5097490;28;20230;-70
2021/12/20 04:59:54;;;;;;;3.17;1.97;;;3.60;99.90;;;;;;5101818;27;20228;-68
2021/12/20 05:02:43;;;;;;;5.30;1.70;;;3.60;99.90;;;;;;5090391;27;20261;-64
2021/12/20 05:05:32;;;;;;;3.17;1.57;;;3.60;99.90;;;;;;5104846;27;20226;-68
2021/12/20 05:08:21;;;;;;;4.10;1.60;;;3.60;99.90;;;;;;5084508;28;20314;-69
2021/12/20 05:11:11;;;;;;;2.10;1.37;;;3.60;99.90;;;;;;5097756;28;20221;-68
2021/12/20 05:14:00;;;;;;;2.97;1.57;;;3.60;99.90;;;;;;5096697;27;20215;-68
2021/12/20 05:16:48;;;;;;;3.67;1.80;;;3.60;99.90;;;;;;5098049;28;20333;-69
2021/12/20 05:19:38;;;;;;;4.43;2.07;;;3.50;99.90;;;;;;5083180;28;20673;-69
2021/12/20 05:22:27;;;;;;;3.90;1.90;;;3.50;99.90;;;;;;5096684;28;20737;-68
2021/12/20 05:25:16;;;;;;;3.20;1.90;;;3.50;99.90;;;;;;5098903;27;20799;-69
2021/12/20 05:28:08;;;;;;;3.80;1.90;;;3.60;99.90;;;;;;5081452;28;20217;-67
2021/12/20 05:30:57;;;;;;;2.30;1.97;;;3.60;99.90;;;;;;5084721;28;20227;-68
2021/12/20 05:33:46;;;;;;;2.63;1.87;;;3.60;99.90;;;;;;5097627;28;20215;-67
2021/12/20 05:36:35;;;;;;;3.63;1.83;;;3.70;99.90;;;;;;5100001;28;20356;-68
2021/12/20 05:39:23;;;;;;;2.93;1.93;;;3.70;99.90;;;;;;5084140;28;20214;-69
2021/12/20 05:42:12;;;;;;;4.23;2.00;;;3.70;99.90;;;;;;5085738;28;20227;-68
2021/12/20 05:45:03;;;;;;;4.30;2.20;;;3.70;99.90;;;;;;5095773;27;21022;-68
2021/12/20 05:47:52;;;;;;;4.17;2.13;;;3.70;99.90;;;;;;5088233;28;20310;-69
2021/12/20 05:50:41;;;;;;;3.13;1.80;;;3.70;99.90;;;;;;5091175;28;20219;-67
2021/12/20 05:53:29;;;;;;;3.97;2.13;;;3.80;99.90;;;;;;5101408;28;20233;-64
2021/12/20 05:56:18;;;;;;;5.23;2.13;;;3.70;99.90;;;;;;5098435;27;20238;-68
2021/12/20 05:59:07;;;;;;;4.73;2.00;;;3.80;99.90;;;;;;5094764;28;20228;-68
2021/12/20 06:01:57;;;;;;;3.57;1.97;;;3.80;99.90;;;;;;5084831;28;20285;-67
2021/12/20 06:04:50;;;;;;;4.43;2.37;;;3.70;99.90;;;;;;5098580;28;20243;-68
2021/12/20 06:07:41;;;;;;;3.47;2.17;;;3.70;99.90;;;;;;5078585;28;20301;-68
2021/12/20 06:10:30;;;;;;;3.77;2.50;;;3.70;99.90;;;;;;5097618;28;20229;-69
2021/12/20 06:13:22;;;;;;;3.57;2.87;;;3.70;99.90;;;;;;5090552;28;20232;-69
2021/12/20 06:16:11;;;;;;;3.57;2.53;;;3.70;99.90;;;;;;5092199;28;20232;-69
2021/12/20 06:19:02;;;;;;;5.20;2.70;;;3.70;99.90;;;;;;5097287;28;20216;-69
2021/12/20 06:21:51;;;;;;;3.37;2.53;;;3.70;99.90;;;;;;5080222;28;20212;-69
2021/12/20 06:24:40;;;;;;;4.30;2.80;;;3.70;99.90;;;;;;5081142;28;21196;-67
2021/12/20 06:27:29;;;;;;;4.60;2.97;;;3.70;99.90;;;;;;5094504;28;20410;-69
2021/12/20 06:30:18;;;;;;;5.33;2.83;;;3.60;99.90;;;;;;5096913;28;20626;-68
2021/12/20 06:33:07;;;;;;;3.87;3.10;;;3.50;99.90;;;;;;5085673;28;20228;-69
2021/12/20 06:35:57;;;;;;;4.50;3.00;;;3.50;99.90;;;;;;5096482;28;20265;-69
2021/12/20 06:38:47;;;;;;;4.03;3.17;;;3.40;99.90;;;;;;5096456;28;20310;-68
2021/12/20 06:41:36;;;;;;;5.43;3.47;;;3.50;99.90;;;;;;5097694;28;20225;-69
2021/12/20 06:44:25;;;;;;;3.67;2.90;;;3.50;99.90;;;;;;5094558;28;20689;-70
2021/12/20 06:47:14;;;;;;;5.00;2.97;;;3.40;99.90;;;;;;5097085;28;20213;-68
2021/12/20 06:50:04;;;;;;;6.50;3.53;;;3.40;99.90;;;;;;5095483;28;20275;-68
2021/12/20 06:52:54;;;;;;;5.83;3.00;;;3.50;99.90;;;;;;5095852;28;20223;-66
2021/12/20 06:55:43;;;;;;;3.83;2.63;;;3.50;99.90;;;;;;5081858;28;20721;-69
2021/12/20 06:58:31;;;;;;;5.03;3.00;;;3.60;99.90;;;;;;5084494;28;20220;-71
2021/12/20 07:01:21;;;;;;;3.57;2.90;;;3.60;99.90;;;;;;5096864;28;20704;-70
2021/12/20 07:04:12;;;;;;;4.53;3.23;;;3.60;99.90;;;;;;5097588;28;20231;-71
2021/12/20 07:07:01;;;;;;;5.10;3.17;;;3.70;99.90;;;;;;5098298;28;20247;-68
2021/12/20 07:09:51;;;;;;;3.50;2.87;;;3.70;99.90;;;;;;5081517;28;20226;-66
2021/12/20 07:12:40;;;;;;;6.10;3.20;;;3.70;99.90;;;;;;5084277;28;20239;-68
2021/12/20 07:15:31;;;;;;;3.67;3.10;;;3.70;99.90;;;;;;5079736;28;20899;-67
2021/12/20 07:18:20;;;;;;;5.80;3.13;;;3.80;99.90;;;;;;5096446;28;20243;-67
2021/12/20 07:21:08;;;;;;;3.73;3.13;;;3.70;99.90;;;;;;5098980;28;20376;-67
2021/12/20 07:23:57;;;;;;;3.10;2.67;;;3.70;99.90;;;;;;5079771;28;20252;-68
2021/12/20 07:26:48;;;;;;;4.50;2.93;;;3.80;99.90;;;;;;5095362;28;20750;-67
2021/12/20 07:29:37;;;;;;;3.67;2.63;;;3.80;99.90;;;;;;5084094;28;20225;-66
2021/12/20 07:32:26;;;;;;;5.80;2.43;;;3.70;99.90;;;;;;5087615;28;20230;-67
2021/12/20 07:35:15;;;;;;;5.37;2.90;;;3.80;99.90;;;;;;5087307;28;20875;-67
2021/12/20 07:38:04;;;;;;;4.13;2.77;;;3.90;99.90;;;;;;5102491;28;20225;-66
2021/12/20 07:40:54;;;;;;;4.67;2.50;;;3.90;99.90;;;;;;5097887;28;20765;-67
2021/12/20 07:43:44;;;;;;;4.70;3.20;;;3.90;99.90;;;;;;5100651;28;20263;-67
2021/12/20 07:46:32;;;;;;;3.43;3.13;;;3.90;99.90;;;;;;5101000;27;20236;-67
2021/12/20 07:49:21;;;;;;;5.00;3.17;;;4.00;99.90;;;;;;5095767;28;20226;-68
2021/12/20 07:52:10;;;;;;;5.43;3.00;;;3.90;99.90;;;;;;5080589;28;20366;-66
2021/12/20 07:54:59;;;;;;;4.80;3.60;;;3.90;99.90;;;;;;5083661;28;20672;-66
2021/12/20 07:57:48;;;;;;;5.90;4.00;;;3.90;99.90;;;;;;5097927;28;20217;-67
2021/12/20 08:00:38;;;;;;;4.53;3.57;;;3.90;99.90;;;;;;5085420;28;20229;-68
2021/12/20 08:03:27;;;;;;;5.93;3.60;;;4.00;99.90;;;;;;5088969;27;20238;-67
2021/12/20 08:06:16;;;;;;;5.67;3.70;;;4.00;99.90;;;;;;5096059;28;20222;-67
2021/12/20 08:09:05;;;;;;;4.23;3.30;;;4.00;99.90;;;;;;5082186;28;20344;-67
2021/12/20 08:11:54;;;;;;;4.37;3.20;;;3.90;99.90;;;;;;5095792;28;20343;-67
2021/12/20 08:14:42;;;;;;;4.00;3.30;;;3.90;99.90;;;;;;5099837;27;20222;-65
2021/12/20 08:17:33;;;;;;;3.37;2.87;;;3.90;99.90;;;;;;5091711;28;20227;-68
2021/12/20 08:20:23;;;;;;;3.60;3.10;;;3.90;99.90;;;;;;5092175;28;20696;-68
2021/12/20 08:23:11;;;;;;;3.80;2.90;;;4.00;99.90;;;;;;5099357;27;20366;-67
2021/12/20 08:26:00;;;;;;;3.70;2.90;;;3.90;99.90;;;;;;5096015;28;20235;-67
2021/12/20 08:28:49;;;;;;;4.50;3.40;;;3.90;99.90;;;;;;5086280;28;20240;-69
2021/12/20 08:31:39;;;;;;;4.87;3.10;;;3.90;99.90;;;;;;5088882;28;20260;-68
2021/12/20 08:34:30;;;;;;;5.20;3.53;;;4.00;99.90;;;;;;5097557;28;20209;-68
2021/12/20 08:37:19;;;;;;;5.10;3.10;;;3.90;99.90;;;;;;5100656;28;20228;-66
2021/12/20 08:40:11;;;;;;;5.37;3.87;;;3.90;99.90;;;;;;5086385;28;20228;-67
2021/12/20 08:43:01;;;;;;;5.07;3.60;;;3.80;99.90;;;;;;5082723;28;20226;-66
2021/12/20 08:45:50;;;;;;;6.10;3.57;;;3.70;99.90;;;;;;5097269;27;20216;-67
2021/12/20 08:48:39;;;;;;;4.30;3.50;;;3.70;99.90;;;;;;5083987;28;20220;-67
2021/12/20 08:51:30;;;;;;;3.73;3.20;;;3.50;99.90;;;;;;5079799;28;20233;-66
2021/12/20 08:54:19;;;;;;;6.70;3.90;;;3.40;99.90;;;;;;5094310;28;20496;-66
2021/12/20 08:57:08;;;;;;;4.30;3.43;;;3.60;99.90;;;;;;5083155;28;20313;-66
2021/12/20 08:59:57;;;;;;;9.47;3.90;;;3.50;99.90;;;;;;5098991;28;20250;-67
2021/12/20 09:02:46;;;;;;;7.57;3.97;;;3.50;99.90;;;;;;5083859;28;20501;-68
2021/12/20 09:05:36;;;;;;;6.77;3.80;;;3.50;99.90;;;;;;5088086;28;20252;-66
2021/12/20 09:08:26;;;;;;;5.53;4.00;;;3.40;99.90;;;;;;5083989;28;20221;-67
2021/12/20 09:11:15;;;;;;;7.53;4.03;;;3.40;99.90;;;;;;5085587;28;20224;-64
2021/12/20 09:14:18;;;;;;;8.37;3.73;;;3.40;99.90;;;;;;5097521;27;20231;-66
2021/12/20 09:17:07;;;;;;;6.43;3.30;;;3.20;99.90;;;;;;5099464;28;20246;-66
2021/12/20 09:19:56;;;;;;;6.70;3.37;;;3.30;99.90;;;;;;5099774;27;20225;-69
2021/12/20 09:22:56;;;;;;;5.77;2.90;;;3.10;99.90;;;;;;5097678;28;20225;-70
2021/12/20 09:25:46;;;;;;;3.17;2.27;;;3.20;99.90;;;;;;5087080;28;20221;-69
2021/12/20 09:28:35;;;;;;;2.90;2.17;;;3.10;99.90;;;;;;5099474;28;20227;-69
2021/12/20 09:31:24;;;;;;;5.13;2.10;;;2.80;99.90;;;;;;5079389;28;20323;-70
2021/12/20 09:34:13;;;;;;;3.07;2.10;;;2.70;99.90;;;;;;5083179;28;20249;-70
2021/12/20 09:37:05;;;;;;;3.17;1.73;;;2.60;99.90;;;;;;5097500;28;21010;-66
2021/12/20 09:39:55;;;;;;;2.27;1.70;;;2.60;99.90;;;;;;5094143;28;20246;-68
2021/12/20 09:42:49;;;;;;;3.30;2.03;;;2.70;99.90;;;;;;5081471;28;20220;-67
2021/12/20 09:45:39;;;;;;;5.93;2.10;;;2.60;99.90;;;;;;5098426;28;20238;-67
2021/12/20 09:48:28;;;;;;;4.67;2.07;;;2.60;99.90;;;;;;5096524;28;20223;-66
2021/12/20 09:51:18;;;;;;;2.80;1.53;;;2.60;99.90;;;;;;5082387;28;20241;-66
2021/12/20 09:54:06;;;;;;;3.47;1.27;;;2.60;99.90;;;;;;5098123;28;20237;-66
2021/12/20 09:56:57;;;;;;;3.30;1.60;;;2.60;99.90;;;;;;5097879;28;20215;-67
2021/12/20 09:59:51;;;;;;;2.27;1.67;;;2.70;99.90;;;;;;5096010;28;20234;-65
2021/12/20 10:02:40;;;;;;;5.13;2.00;;;2.80;99.90;;;;;;5081759;28;20227;-68
2021/12/20 10:05:29;;;;;;;3.87;1.50;;;2.80;99.90;;;;;;5098787;28;20211;-65
2021/12/20 10:08:20;;;;;;;2.00;1.30;;;2.80;99.90;;;;;;5082573;28;20231;-67
2021/12/20 10:11:19;;;;;;;2.37;1.60;;;2.90;99.90;;;;;;5083625;28;20637;-66
2021/12/20 10:14:10;;;;;;;3.10;1.50;;;2.80;99.90;;;;;;5077806;28;20378;-67
2021/12/20 10:17:06;;;;;;;3.33;1.40;;;2.70;99.90;;;;;;5082361;28;20226;-66
2021/12/20 10:19:58;;;;;;;4.10;1.80;;;2.80;99.90;;;;;;5095738;28;20215;-66
2021/12/20 10:22:47;;;;;;;4.37;1.60;;;2.90;99.90;;;;;;5097017;28;20230;-67
2021/12/20 10:25:37;;;;;;;4.50;2.30;;;2.80;99.90;;;;;;5096710;28;20295;-66
2021/12/20 10:28:31;;;;;;;3.30;2.00;;;2.70;99.90;;;;;;5084421;28;20211;-66
2021/12/20 10:31:22;;;;;;;3.53;2.10;;;2.80;99.90;;;;;;5098290;28;20238;-66
2021/12/20 10:34:13;;;;;;;5.13;2.47;;;2.90;99.90;;;;;;5094498;28;20231;-67
2021/12/20 10:37:04;;;;;;;3.23;2.40;;;3.10;99.90;;;;;;5082592;28;20227;-68
2021/12/20 10:40:03;;;;;;;4.13;2.67;;;3.00;99.90;;;;;;5098175;28;20222;-68
2021/12/20 10:42:52;;;;;;;3.80;2.50;;;2.80;99.90;;;;;;5077198;28;20276;-68
2021/12/20 10:45:41;;;;;;;3.73;1.87;;;2.50;99.90;;;;;;5085934;28;20264;-67
2021/12/20 10:48:34;;;;;;;2.70;1.80;;;2.50;99.90;;;;;;5097781;28;20896;-68
2021/12/20 10:51:27;;;;;;;3.40;2.17;;;2.40;99.90;;;;;;5098177;28;20214;-68
2021/12/20 10:54:19;;;;;;;3.10;1.60;;;2.50;99.90;;;;;;5079243;28;20222;-68
2021/12/20 10:57:08;;;;;;;2.27;1.10;;;2.50;99.90;;;;;;5085022;28;20226;-67
2021/12/20 11:00:16;;;;;;;2.80;0.80;;;2.50;99.90;;;;;;5094252;28;20219;-65
2021/12/20 11:03:25;;;;;;;2.30;1.20;;;2.30;99.90;;;;;;5098533;28;20313;-67
2021/12/20 11:06:37;;;;;;;1.87;1.30;;;2.50;99.90;;;;;;5084156;28;20227;-66
2021/12/20 11:09:29;;;;;;;3.13;1.43;;;2.60;99.90;;;;;;5087495;28;20215;-67
2021/12/20 11:12:23;;;;;;;2.97;1.53;;;2.60;99.90;;;;;;5102587;28;20230;-68
2021/12/20 11:15:14;;;;;;;2.03;1.10;;;2.70;99.90;;;;;;5100070;28;20227;-68
2021/12/20 11:18:15;;;;;;;3.10;1.33;;;2.70;99.90;;;;;;5099782;27;20380;-67
2021/12/20 11:21:13;;;;;;;2.33;1.30;;;2.60;99.90;;;;;;5100883;28;20309;-67
2021/12/20 11:24:02;;;;;;;1.63;1.47;;;2.50;99.90;;;;;;5102055;27;20215;-67
2021/12/20 11:26:53;;;;;;;1.47;1.00;;;2.50;99.90;;;;;;5101499;28;20989;-67
2021/12/20 11:29:43;;;;;;;2.37;1.23;;;2.50;99.90;;;;;;5100758;28;20218;-66
2021/12/20 11:32:32;;;;;;;1.57;1.13;;;2.60;99.90;;;;;;5101674;28;20626;-67
2021/12/20 11:35:23;;;;;;;4.17;2.30;;;2.50;99.90;;;;;;5098709;28;20285;-67
2021/12/20 11:38:12;;;;;;;3.73;2.07;;;2.40;99.90;;;;;;5087146;28;20336;-67
2021/12/20 11:41:02;;;;;;;2.70;1.60;;;2.50;99.90;;;;;;5099324;28;20242;-68
2021/12/20 11:43:53;;;;;;;3.03;1.37;;;2.50;99.90;;;;;;5100108;28;20234;-68
2021/12/20 11:47:10;;;;;;;1.60;1.10;;;2.60;99.90;;;;;;5086707;28;21296;-68
2021/12/20 11:50:02;;;;;;;1.87;1.20;;;2.60;99.90;;;;;;5082373;28;20218;-68
2021/12/20 11:52:52;;;;;;;0.67;0.63;;;2.70;99.90;;;;;;5099908;27;20674;-65
2021/12/20 11:55:47;;;;;;;3.07;0.80;;;2.30;99.90;;;;;;5080290;28;20226;-68
2021/12/20 11:58:37;;;;;;;1.37;1.00;;;2.20;99.90;;;;;;5101272;28;20218;-66
2021/12/20 12:01:28;;;;;;;1.73;1.00;;;2.00;99.90;;;;;;5101014;28;20237;-69
2021/12/20 12:04:16;;;;;;;2.40;1.40;;;2.10;99.90;;;;;;5082312;28;20227;-69
2021/12/20 12:07:21;;;;;;;1.93;1.20;;;2.10;99.90;;;;;;5098581;27;20274;-65
2021/12/20 12:10:12;;;;;;;1.90;1.10;;;2.10;99.90;;;;;;5097798;27;20227;-68
2021/12/20 12:13:02;;;;;;;4.03;1.40;;;2.10;99.90;;;;;;5100732;28;20241;-67
2021/12/20 12:15:53;;;;;;;2.00;1.10;;;2.10;99.90;;;;;;5083912;28;20226;-68
2021/12/20 12:18:52;;;;;;;2.03;1.10;;;2.10;99.90;;;;;;5085459;28;20219;-65
2021/12/20 12:21:42;;;;;;;0.60;0.60;;;2.00;99.90;;;;;;5095148;28;20223;-67
2021/12/20 12:24:45;;;;;;;1.93;1.17;;;1.90;99.90;;;;;;5094350;27;20215;-67
2021/12/20 12:27:35;;;;;;;1.67;1.10;;;1.80;99.90;;;;;;5096014;28;20207;-67
2021/12/20 12:30:36;;;;;;;1.83;1.10;;;1.80;99.90;;;;;;5098075;27;20238;-68
2021/12/20 12:33:31;;;;;;;4.67;1.30;;;1.70;99.90;;;;;;5096017;28;20324;-68
2021/12/20 12:36:38;;;;;;;2.47;1.20;;;1.80;99.90;;;;;;5087635;28;20218;-66
2021/12/20 12:39:29;;;;;;;2.03;1.33;;;1.70;99.90;;;;;;5099934;28;20322;-67
2021/12/20 12:42:18;;;;;;;1.90;1.20;;;1.70;99.90;;;;;;5067773;28;20591;-67
2021/12/20 12:45:48;;;;;;;2.50;1.20;;;1.60;99.90;;;;;;5074218;28;20306;-68
2021/12/20 12:48:38;;;;;;;1.80;1.17;;;1.60;99.90;;;;;;5083538;28;20643;-68
2021/12/20 12:51:46;;;;;;;2.03;1.33;;;1.80;99.90;;;;;;5096439;27;20221;-68
2021/12/20 12:54:40;;;;;;;2.33;1.30;;;1.80;99.90;;;;;;5097020;28;20222;-67
2021/12/20 12:57:35;;;;;;;3.23;1.73;;;1.60;99.90;;;;;;5098863;28;20215;-67
2021/12/20 13:00:33;;;;;;;3.70;1.60;;;1.70;99.90;;;;;;5068159;28;20615;-67
2021/12/20 13:03:23;;;;;;;7.90;4.57;;;1.70;99.90;;;;;;5087217;28;20309;-66
2021/12/20 13:06:19;;;;;;;6.17;3.53;;;1.80;99.90;;;;;;5096297;27;20230;-66
2021/12/20 13:09:09;;;;;;;4.73;3.03;;;2.00;99.90;;;;;;5100207;27;20246;-66
2021/12/20 13:12:09;;;;;;;4.93;2.33;;;1.90;99.90;;;;;;5098425;27;20222;-67
2021/12/20 13:15:06;;;;;;;2.20;1.40;;;1.90;99.90;;;;;;5098157;28;20357;-67
2021/12/20 13:17:59;;;;;;;4.37;1.70;;;1.80;99.90;;;;;;5093306;28;20223;-67
2021/12/20 13:20:56;;;;;;;1.90;1.37;;;1.70;99.90;;;;;;5079061;28;20215;-68
2021/12/20 13:23:46;;;;;;;3.40;1.57;;;1.60;99.90;;;;;;5086566;28;20365;-67
2021/12/20 13:26:37;;;;;;;3.50;2.17;;;1.50;99.90;;;;;;5089901;28;20308;-67
2021/12/20 13:29:25;;;;;;;3.60;2.17;;;1.50;99.90;;;;;;5073323;28;20211;-66
2021/12/20 13:32:14;;;;;;;3.93;2.10;;;1.60;99.90;;;;;;5091788;28;20263;-67
2021/12/20 13:35:18;;;;;;;2.83;2.00;;;1.70;99.90;;;;;;5075424;28;20212;-66
2021/12/20 13:38:16;;;;;;;3.60;1.70;;;1.70;99.90;;;;;;5074480;28;20219;-67
2021/12/20 13:41:10;;;;;;;2.70;1.90;;;1.70;99.90;;;;;;5079095;28;20777;-66
2021/12/20 13:44:05;;;;;;;3.83;1.70;;;1.70;99.90;;;;;;5078324;28;20238;-67
2021/12/20 13:46:57;;;;;;;2.73;1.57;;;1.60;99.90;;;;;;5084358;28;20235;-68
2021/12/20 13:49:45;;;;;;;1.60;1.20;;;1.50;99.90;;;;;;5078852;28;20720;-66
2021/12/20 13:52:44;;;;;;;3.70;1.73;;;1.50;99.90;;;;;;5068362;28;20225;-66
2021/12/20 13:55:33;;;;;;;4.67;1.60;;;1.50;99.90;;;;;;5074026;28;20227;-68
2021/12/20 13:58:22;;;;;;;8.67;5.10;;;1.50;99.90;;;;;;5079420;28;20296;-66
2021/12/20 14:01:13;;;;;;;5.50;2.83;;;1.60;99.90;;;;;;5073548;28;20234;-66
2021/12/20 14:04:02;;;;;;;4.50;2.83;;;1.60;99.90;;;;;;5077327;28;20654;-68
2021/12/20 14:06:51;;;;;;;2.87;1.90;;;1.40;99.90;;;;;;5073986;28;20270;-68
2021/12/20 14:09:59;;;;;;;6.73;4.07;;;1.50;99.90;;;;;;5076109;28;20227;-67
2021/12/20 14:12:50;;;;;;;3.77;2.63;;;1.30;99.90;;;;;;5075418;28;20293;-68
2021/12/20 14:15:40;;;;;;;3.30;1.60;;;1.30;99.90;;;;;;5072363;28;20259;-67
2021/12/20 14:18:37;;;;;;;4.43;1.90;;;1.10;99.90;;;;;;5076975;28;20336;-68
2021/12/20 14:21:26;;;;;;;3.60;2.40;;;1.10;99.90;;;;;;5088703;28;20216;-67
2021/12/20 14:24:15;;;;;;;3.70;1.80;;;1.00;99.90;;;;;;5080257;28;20333;-67
2021/12/20 14:27:04;;;;;;;4.47;1.83;;;1.10;99.90;;;;;;5076283;28;20550;-67
2021/12/20 14:29:53;;;;;;;3.33;1.90;;;1.00;99.90;;;;;;5075176;28;20234;-67
2021/12/20 14:32:43;;;;;;;3.33;2.13;;;1.00;99.90;;;;;;5077674;28;20733;-66
2021/12/20 14:35:36;;;;;;;2.97;2.00;;;0.90;99.90;;;;;;5073890;28;20220;-66
2021/12/20 14:38:40;;;;;;;4.83;2.23;;;0.90;99.90;;;;;;5076786;28;20298;-66
2021/12/20 14:41:32;;;;;;;4.20;2.73;;;1.00;99.90;;;;;;5075585;28;20211;-66
2021/12/20 14:44:27;;;;;;;3.53;2.30;;;0.80;99.90;;;;;;5085330;28;20212;-65
2021/12/20 14:47:31;;;;;;;6.03;2.80;;;0.80;99.90;;;;;;5076595;28;20227;-66
2021/12/20 14:50:25;;;;;;;5.43;2.70;;;0.70;99.90;;;;;;5087296;28;20239;-69
2021/12/20 14:53:17;;;;;;;4.37;1.47;;;0.70;99.90;;;;;;5077180;28;20219;-67
2021/12/20 14:56:08;;;;;;;7.13;4.70;;;0.70;99.90;;;;;;5077534;28;20226;-66
2021/12/20 14:58:57;;;;;;;11.03;6.27;;;0.50;99.90;;;;;;5079312;28;20266;-67
2021/12/20 15:01:46;;;;;;;6.80;3.23;;;0.50;99.90;;;;;;5074807;28;20340;-66
2021/12/20 15:04:35;;;;;;;4.33;2.83;;;0.60;99.90;;;;;;5075662;28;20218;-68
2021/12/20 15:07:24;;;;;;;4.57;2.93;;;0.60;99.90;;;;;;5075462;28;20232;-66
2021/12/20 15:10:15;;;;;;;5.17;2.27;;;0.70;99.90;;;;;;5077652;28;20224;-68
2021/12/20 15:13:04;;;;;;;6.50;2.07;;;0.70;99.90;;;;;;5076158;28;20286;-68